Time;durP1;ratioP1;P1;durP2;ratioP2;P2;SDS_P1;SDS_P2;PMS_P1;PMS_P2;Temp;Humidity;BMP_temperature;BMP_pressure;BME280_temperature;BME280_humidity;BME280_pressure;Samples;Min_cycle;Max_cycle;Signal;HPM_P1;HPM_P2
2022/12/13 00:01:51;;;;;;;75.63;31.77;;;-5.60;99.90;;;;;;4971961;28;20627;-57
2022/12/13 00:04:22;;;;;;;82.80;31.43;;;-5.70;99.90;;;;;;4967833;28;20295;-58
2022/12/13 00:06:53;;;;;;;82.70;31.23;;;-5.70;99.90;;;;;;4964586;28;20196;-58
2022/12/13 00:09:22;;;;;;;78.97;31.77;;;-5.70;99.90;;;;;;4968601;28;20199;-58
2022/12/13 00:11:51;;;;;;;73.70;30.90;;;-5.60;99.90;;;;;;4990522;28;20195;-58
2022/12/13 00:14:19;;;;;;;77.93;32.57;;;-5.70;99.90;;;;;;4999929;28;20196;-58
2022/12/13 00:16:49;;;;;;;82.17;32.07;;;-5.70;99.90;;;;;;4971295;28;20220;-58
2022/12/13 00:19:18;;;;;;;87.07;34.40;;;-5.70;99.90;;;;;;4969984;28;20227;-58
2022/12/13 00:21:46;;;;;;;85.87;33.03;;;-5.70;99.90;;;;;;4969373;28;20556;-58
2022/12/13 00:24:17;;;;;;;89.40;34.27;;;-5.70;99.90;;;;;;4972379;28;20210;-58
2022/12/13 00:26:45;;;;;;;81.23;34.07;;;-5.70;99.90;;;;;;4971732;28;20199;-58
2022/12/13 00:29:14;;;;;;;88.27;35.50;;;-5.70;99.90;;;;;;4970716;28;20192;-58
2022/12/13 00:31:42;;;;;;;94.07;34.33;;;-5.70;99.90;;;;;;4978592;28;20814;-58
2022/12/13 00:34:26;;;;;;;92.30;34.70;;;-5.70;99.90;;;;;;4968275;28;20661;-58
2022/12/13 00:36:57;;;;;;;86.40;33.73;;;-5.70;99.90;;;;;;4970858;28;20210;-58
2022/12/13 00:39:28;;;;;;;86.57;33.80;;;-5.70;99.90;;;;;;4956818;28;20200;-57
2022/12/13 00:41:57;;;;;;;83.33;32.80;;;-5.70;99.90;;;;;;4983603;28;20224;-58
2022/12/13 00:44:26;;;;;;;87.77;34.03;;;-5.80;99.90;;;;;;4969645;28;20211;-58
2022/12/13 00:46:55;;;;;;;80.03;32.23;;;-5.80;99.90;;;;;;4970100;28;20196;-58
2022/12/13 00:49:24;;;;;;;91.90;31.87;;;-5.80;99.90;;;;;;4971515;28;20500;-58
2022/12/13 00:51:52;;;;;;;78.47;31.17;;;-5.90;99.90;;;;;;4985152;28;20371;-58
2022/12/13 00:54:21;;;;;;;77.00;30.30;;;-5.90;99.90;;;;;;4970599;28;20200;-58
2022/12/13 00:56:51;;;;;;;73.57;29.37;;;-5.90;99.90;;;;;;4968607;28;20203;-58
2022/12/13 00:59:19;;;;;;;74.50;27.97;;;-5.90;99.90;;;;;;4969569;28;20199;-58
2022/12/13 01:01:48;;;;;;;72.03;26.53;;;-6.00;99.90;;;;;;4969883;28;20199;-58
2022/12/13 01:04:17;;;;;;;61.77;25.37;;;-6.00;99.90;;;;;;5001011;28;20206;-58
2022/12/13 01:06:48;;;;;;;65.37;26.10;;;-6.00;99.90;;;;;;4968600;28;20620;-58
2022/12/13 01:09:19;;;;;;;66.97;26.73;;;-6.00;99.90;;;;;;4969663;28;20191;-58
2022/12/13 01:11:48;;;;;;;68.00;25.67;;;-6.00;99.90;;;;;;4964728;28;20211;-58
2022/12/13 01:14:18;;;;;;;64.73;26.43;;;-6.00;99.90;;;;;;4968122;28;20184;-58
2022/12/13 01:16:47;;;;;;;69.03;25.13;;;-6.10;99.90;;;;;;4973501;28;20235;-58
2022/12/13 01:19:15;;;;;;;65.20;24.13;;;-6.10;99.90;;;;;;4996334;28;20219;-57
2022/12/13 01:21:47;;;;;;;61.47;23.67;;;-6.10;99.90;;;;;;4969878;28;20198;-58
2022/12/13 01:24:19;;;;;;;65.83;23.53;;;-6.10;99.90;;;;;;4970347;28;20211;-57
2022/12/13 01:26:48;;;;;;;56.90;23.20;;;-6.20;99.90;;;;;;4968036;28;20199;-58
2022/12/13 01:29:18;;;;;;;60.20;22.77;;;-6.20;99.90;;;;;;4966408;28;20286;-58
2022/12/13 01:31:47;;;;;;;61.07;23.47;;;-6.20;99.90;;;;;;4996547;28;20662;-58
2022/12/13 01:34:18;;;;;;;53.23;21.77;;;-6.30;99.90;;;;;;4974158;28;20202;-57
2022/12/13 01:36:55;;;;;;;58.30;22.57;;;-6.30;99.90;;;;;;4965358;28;20203;-58
2022/12/13 01:39:27;;;;;;;51.13;21.37;;;-6.30;99.90;;;;;;4966110;28;20282;-58
2022/12/13 01:41:58;;;;;;;67.80;23.27;;;-6.30;99.90;;;;;;4970522;28;20587;-58
2022/12/13 01:45:01;;;;;;;50.07;21.17;;;-6.20;99.90;;;;;;4970711;28;20284;-58
2022/12/13 01:47:33;;;;;;;65.10;22.23;;;-6.30;99.90;;;;;;4995671;28;20680;-58
2022/12/13 01:50:06;;;;;;;53.07;21.90;;;-6.30;99.90;;;;;;4968504;28;20257;-57
2022/12/13 01:52:35;;;;;;;50.77;21.63;;;-6.20;99.90;;;;;;4970173;28;20203;-57
2022/12/13 01:55:06;;;;;;;59.03;21.70;;;-6.20;99.90;;;;;;4976536;28;20192;-58
2022/12/13 01:57:37;;;;;;;57.83;21.90;;;-6.20;99.90;;;;;;4970720;28;20191;-58
2022/12/13 02:00:13;;;;;;;53.80;21.13;;;-6.20;99.90;;;;;;4967693;28;20195;-57
2022/12/13 02:02:42;;;;;;;61.97;21.57;;;-6.20;99.90;;;;;;4967812;28;20664;-58
2022/12/13 02:05:18;;;;;;;51.33;20.17;;;-6.30;99.90;;;;;;4961866;28;20214;-58
2022/12/13 02:07:48;;;;;;;54.63;20.97;;;-6.30;99.90;;;;;;4977004;28;20734;-58
2022/12/13 02:10:16;;;;;;;55.50;20.53;;;-6.30;99.90;;;;;;4976587;28;20200;-58
2022/12/13 02:12:45;;;;;;;51.17;21.00;;;-6.30;99.90;;;;;;4963654;28;20191;-58
2022/12/13 02:15:18;;;;;;;53.07;20.77;;;-6.30;99.90;;;;;;4964932;28;20200;-58
2022/12/13 02:17:58;;;;;;;50.27;20.47;;;-6.30;99.90;;;;;;4963032;28;20219;-57
2022/12/13 02:20:57;;;;;;;55.07;20.17;;;-6.30;99.90;;;;;;4964745;28;20188;-58
2022/12/13 02:24:22;;;;;;;51.87;19.57;;;-6.20;99.90;;;;;;4976089;28;20191;-58
2022/12/13 02:27:14;;;;;;;49.77;19.23;;;-6.20;99.90;;;;;;4968941;28;20218;-58
2022/12/13 02:30:15;;;;;;;54.60;19.23;;;-6.20;99.90;;;;;;4963997;28;20195;-57
2022/12/13 02:33:04;;;;;;;50.40;19.07;;;-6.20;99.90;;;;;;4966725;28;20200;-58
2022/12/13 02:35:43;;;;;;;48.80;18.87;;;-6.30;99.90;;;;;;4965721;28;20211;-58
2022/12/13 02:38:17;;;;;;;54.97;19.10;;;-6.30;99.90;;;;;;4967300;28;20199;-58
2022/12/13 02:40:57;;;;;;;53.43;19.07;;;-6.30;99.90;;;;;;4964701;28;20199;-58
2022/12/13 02:43:32;;;;;;;52.87;19.60;;;-6.30;99.90;;;;;;4971713;28;20213;-58
2022/12/13 02:46:02;;;;;;;50.63;20.00;;;-6.20;99.90;;;;;;4967712;28;20290;-58
2022/12/13 02:48:36;;;;;;;58.77;20.83;;;-6.20;99.90;;;;;;4969363;28;20245;-58
2022/12/13 02:51:06;;;;;;;52.80;20.10;;;-6.10;99.90;;;;;;4966577;28;20637;-58
2022/12/13 02:53:37;;;;;;;47.00;19.80;;;-6.10;99.90;;;;;;4970858;28;20210;-57
2022/12/13 02:56:06;;;;;;;50.87;19.60;;;-6.10;99.90;;;;;;4971377;28;20200;-58
2022/12/13 02:58:37;;;;;;;51.17;20.33;;;-6.10;99.90;;;;;;4969631;28;20661;-58
2022/12/13 03:01:22;;;;;;;51.07;20.57;;;-6.20;99.90;;;;;;4967451;28;20194;-57
2022/12/13 03:04:06;;;;;;;50.90;20.00;;;-6.20;99.90;;;;;;4998112;28;20247;-57
2022/12/13 03:06:45;;;;;;;49.07;19.80;;;-6.20;99.90;;;;;;4969345;28;20215;-58
2022/12/13 03:09:30;;;;;;;47.80;18.93;;;-6.20;99.90;;;;;;4965837;28;20199;-58
2022/12/13 03:15:05;;;;;;;53.33;20.23;;;-6.20;99.90;;;;;;4971629;28;20519;-58
2022/12/13 03:17:41;;;;;;;57.63;20.67;;;-6.20;99.90;;;;;;4965063;28;20246;-58
2022/12/13 03:20:16;;;;;;;53.23;20.63;;;-6.20;99.90;;;;;;4977912;28;20226;-58
2022/12/13 03:22:50;;;;;;;53.13;20.33;;;-6.30;99.90;;;;;;4997714;28;20200;-58
2022/12/13 03:25:20;;;;;;;56.47;22.03;;;-6.30;99.90;;;;;;4976675;28;20224;-58
2022/12/13 03:28:00;;;;;;;56.90;21.30;;;-6.30;99.90;;;;;;4977229;28;20197;-58
2022/12/13 03:30:30;;;;;;;59.77;22.13;;;-6.30;99.90;;;;;;4969680;28;20211;-58
2022/12/13 03:32:59;;;;;;;57.70;22.70;;;-6.30;99.90;;;;;;4968896;28;20212;-58
2022/12/13 03:35:29;;;;;;;58.63;24.47;;;-6.30;99.90;;;;;;4970424;28;20191;-58
2022/12/13 03:38:11;;;;;;;57.67;23.63;;;-6.40;99.90;;;;;;4966903;28;20219;-58
2022/12/13 03:40:51;;;;;;;55.57;21.93;;;-6.40;99.90;;;;;;4958902;28;20278;-58
2022/12/13 03:43:20;;;;;;;59.27;22.37;;;-6.40;99.90;;;;;;4968205;28;20220;-58
2022/12/13 03:45:51;;;;;;;52.77;20.20;;;-6.40;99.90;;;;;;4962458;28;20228;-58
2022/12/13 03:48:19;;;;;;;54.60;21.10;;;-6.40;99.90;;;;;;4998290;28;20202;-58
2022/12/13 03:50:52;;;;;;;45.37;20.27;;;-6.40;99.90;;;;;;4967833;28;20195;-58
2022/12/13 03:53:21;;;;;;;55.03;20.83;;;-6.40;99.90;;;;;;4967300;28;20238;-58
2022/12/13 03:56:02;;;;;;;53.43;20.43;;;-6.40;99.90;;;;;;4968436;28;20203;-58
2022/12/13 03:58:34;;;;;;;60.90;21.73;;;-6.40;99.90;;;;;;4967586;28;20205;-57
2022/12/13 04:01:07;;;;;;;52.30;20.70;;;-6.40;99.90;;;;;;4981955;28;20199;-58
2022/12/13 04:03:36;;;;;;;52.43;20.57;;;-6.40;99.90;;;;;;4966434;28;20302;-58
2022/12/13 04:06:07;;;;;;;57.90;22.67;;;-6.40;99.90;;;;;;4968092;28;20227;-58
2022/12/13 04:08:38;;;;;;;56.50;21.20;;;-6.40;99.90;;;;;;4964908;28;20223;-58
2022/12/13 04:13:51;;;;;;;49.67;21.57;;;-6.50;99.90;;;;;;4970888;28;20222;-58
2022/12/13 04:16:20;;;;;;;49.73;21.70;;;-6.50;99.90;;;;;;4926000;28;1247197;-58
2022/12/13 04:18:49;;;;;;;58.10;21.53;;;-6.50;99.90;;;;;;4964631;28;20197;-58
2022/12/13 04:21:19;;;;;;;49.20;21.13;;;-6.50;99.90;;;;;;4973112;28;20282;-58
2022/12/13 04:23:50;;;;;;;59.93;20.63;;;-6.60;99.90;;;;;;4967536;28;20192;-58
2022/12/13 04:26:19;;;;;;;56.17;20.97;;;-6.60;99.90;;;;;;4968208;28;20240;-58
2022/12/13 04:28:47;;;;;;;42.13;19.33;;;-6.60;99.90;;;;;;4967647;28;20257;-58
2022/12/13 04:31:22;;;;;;;51.70;20.47;;;-6.60;99.90;;;;;;4969186;28;20202;-58
2022/12/13 04:33:51;;;;;;;50.53;20.90;;;-6.60;99.90;;;;;;4973631;28;20631;-58
2022/12/13 04:36:20;;;;;;;48.30;21.70;;;-6.60;99.90;;;;;;4965571;28;20200;-58
2022/12/13 04:39:00;;;;;;;52.37;20.57;;;-6.60;99.90;;;;;;4963838;28;20290;-59
2022/12/13 04:41:29;;;;;;;47.80;20.63;;;-6.70;99.90;;;;;;4969873;28;20218;-58
2022/12/13 04:44:02;;;;;;;49.67;21.23;;;-6.70;99.90;;;;;;4964850;28;20278;-58
2022/12/13 04:46:32;;;;;;;53.33;20.07;;;-6.70;99.90;;;;;;4968619;28;20278;-58
2022/12/13 04:49:01;;;;;;;52.80;20.83;;;-6.70;99.90;;;;;;4966691;28;20207;-58
2022/12/13 04:51:31;;;;;;;61.97;20.80;;;-6.70;99.90;;;;;;4969362;28;20195;-58
2022/12/13 04:53:59;;;;;;;50.87;20.57;;;-6.70;99.90;;;;;;4958612;28;20200;-58
2022/12/13 04:56:48;;;;;;;49.10;20.57;;;-6.70;99.90;;;;;;4967390;28;20200;-58
2022/12/13 04:59:17;;;;;;;55.87;20.77;;;-6.80;99.90;;;;;;4968360;28;20215;-58
2022/12/13 05:01:45;;;;;;;50.50;19.90;;;-6.80;99.90;;;;;;4965698;28;20211;-58
2022/12/13 05:04:13;;;;;;;52.80;21.03;;;-6.80;99.90;;;;;;4997181;28;20194;-58
2022/12/13 05:06:43;;;;;;;49.33;20.30;;;-6.80;99.90;;;;;;4977352;28;20207;-58
2022/12/13 05:09:11;;;;;;;52.67;19.93;;;-6.80;99.90;;;;;;4967051;28;20203;-58
2022/12/13 05:11:39;;;;;;;54.10;20.93;;;-6.80;99.90;;;;;;4963970;28;20208;-58
2022/12/13 05:14:13;;;;;;;62.83;21.73;;;-6.80;99.90;;;;;;4996710;28;20187;-58
2022/12/13 05:16:50;;;;;;;47.30;19.57;;;-6.80;99.90;;;;;;4996841;28;20260;-58
2022/12/13 05:19:19;;;;;;;53.80;20.47;;;-6.80;99.90;;;;;;4971024;28;20200;-58
2022/12/13 05:21:49;;;;;;;54.80;20.10;;;-6.80;99.90;;;;;;4969712;28;20203;-58
2022/12/13 05:24:18;;;;;;;53.33;19.23;;;-6.80;99.90;;;;;;4968068;28;20605;-58
2022/12/13 05:26:47;;;;;;;55.40;20.93;;;-6.80;99.90;;;;;;4956960;28;20208;-58
2022/12/13 05:29:16;;;;;;;46.87;19.77;;;-6.80;99.90;;;;;;4965439;28;20196;-58
2022/12/13 05:31:44;;;;;;;47.47;19.47;;;-6.80;99.90;;;;;;4962498;28;20192;-58
2022/12/13 05:34:13;;;;;;;53.30;19.90;;;-6.80;99.90;;;;;;4971345;28;20286;-58
2022/12/13 05:36:41;;;;;;;53.10;20.77;;;-6.80;99.90;;;;;;4967177;28;20196;-58
2022/12/13 05:39:11;;;;;;;54.97;20.30;;;-6.90;99.90;;;;;;4966433;28;20390;-58
2022/12/13 05:41:58;;;;;;;49.47;19.57;;;-6.90;99.90;;;;;;4966013;28;20216;-58
2022/12/13 05:44:30;;;;;;;46.07;19.17;;;-6.90;99.90;;;;;;4969170;28;20187;-58
2022/12/13 05:46:59;;;;;;;44.00;18.10;;;-6.90;99.90;;;;;;4963959;28;20315;-58
2022/12/13 05:49:30;;;;;;;46.97;19.50;;;-6.90;99.90;;;;;;4962403;28;20197;-58
2022/12/13 05:51:59;;;;;;;48.60;20.23;;;-6.90;99.90;;;;;;4961164;28;20223;-58
2022/12/13 05:54:29;;;;;;;46.43;19.53;;;-6.90;99.90;;;;;;4968092;28;20206;-58
2022/12/13 05:56:57;;;;;;;49.53;19.47;;;-6.90;99.90;;;;;;4960730;28;20581;-58
2022/12/13 05:59:25;;;;;;;48.23;20.20;;;-6.90;99.90;;;;;;4963162;28;20199;-58
2022/12/13 06:01:53;;;;;;;51.40;19.67;;;-6.90;99.90;;;;;;4964096;28;20277;-58
2022/12/13 06:04:22;;;;;;;45.33;19.33;;;-6.90;99.90;;;;;;4992799;28;20206;-58
2022/12/13 06:06:51;;;;;;;53.07;19.50;;;-6.90;99.90;;;;;;4970683;28;20358;-58
2022/12/13 06:09:19;;;;;;;50.73;19.97;;;-6.90;99.90;;;;;;4966116;28;20200;-58
2022/12/13 06:11:49;;;;;;;46.77;19.63;;;-6.90;99.90;;;;;;4965105;28;20194;-58
2022/12/13 06:14:17;;;;;;;44.77;19.30;;;-6.90;99.90;;;;;;4962822;28;20208;-58
2022/12/13 06:16:51;;;;;;;56.20;20.20;;;-6.90;99.90;;;;;;4966842;28;20234;-58
2022/12/13 06:19:20;;;;;;;47.97;20.03;;;-6.90;99.90;;;;;;4965496;28;20578;-58
2022/12/13 06:21:48;;;;;;;46.50;19.53;;;-6.90;99.90;;;;;;4972638;28;20195;-58
2022/12/13 06:24:19;;;;;;;46.67;18.33;;;-6.90;99.90;;;;;;4966577;28;20200;-58
2022/12/13 06:26:50;;;;;;;60.37;21.07;;;-6.90;99.90;;;;;;4996677;28;20207;-58
2022/12/13 06:29:20;;;;;;;48.73;19.33;;;-6.90;99.90;;;;;;4964685;28;20234;-57
2022/12/13 06:31:56;;;;;;;45.37;19.77;;;-6.90;99.90;;;;;;4962055;28;20227;-58
2022/12/13 06:34:31;;;;;;;52.97;20.40;;;-6.90;99.90;;;;;;4964834;28;20199;-57
2022/12/13 06:36:59;;;;;;;51.50;20.80;;;-7.00;99.90;;;;;;4967924;28;20210;-59
2022/12/13 06:39:29;;;;;;;50.77;20.83;;;-7.00;99.90;;;;;;4962030;28;20214;-58
2022/12/13 06:42:04;;;;;;;50.53;20.40;;;-7.00;99.90;;;;;;4962565;28;20223;-59
2022/12/13 06:44:33;;;;;;;59.17;23.37;;;-7.00;99.90;;;;;;4964337;28;20211;-57
2022/12/13 06:47:02;;;;;;;59.90;22.70;;;-7.10;99.90;;;;;;4970314;28;20204;-58
2022/12/13 06:49:41;;;;;;;60.83;22.77;;;-7.10;99.90;;;;;;4969503;28;20195;-58
2022/12/13 06:52:12;;;;;;;48.17;21.70;;;-7.10;99.90;;;;;;4962224;28;20599;-59
2022/12/13 06:54:41;;;;;;;59.63;23.73;;;-7.10;99.90;;;;;;4965708;28;20440;-58
2022/12/13 06:57:11;;;;;;;51.97;20.87;;;-7.10;99.90;;;;;;4966794;28;20194;-58
2022/12/13 06:59:39;;;;;;;49.13;20.27;;;-7.10;99.90;;;;;;4963687;28;20883;-58
2022/12/13 07:02:09;;;;;;;45.17;19.43;;;-7.10;99.90;;;;;;4965017;28;20192;-57
2022/12/13 07:04:52;;;;;;;48.83;19.50;;;-7.10;99.90;;;;;;4965345;28;20269;-57
2022/12/13 07:07:20;;;;;;;45.03;19.63;;;-7.10;99.90;;;;;;4959518;28;20567;-58
2022/12/13 07:09:48;;;;;;;53.13;20.70;;;-7.10;99.90;;;;;;4964825;28;20196;-58
2022/12/13 07:12:19;;;;;;;54.03;20.43;;;-7.10;99.90;;;;;;4970806;28;20199;-57
2022/12/13 07:14:48;;;;;;;44.77;18.13;;;-7.20;99.90;;;;;;5000402;28;20199;-58
2022/12/13 07:17:17;;;;;;;48.87;19.53;;;-7.20;99.90;;;;;;4976925;28;20226;-57
2022/12/13 07:20:00;;;;;;;54.03;19.87;;;-7.20;99.90;;;;;;4971845;28;20200;-58
2022/12/13 07:22:29;;;;;;;42.17;19.10;;;-7.20;99.90;;;;;;4971145;28;20223;-58
2022/12/13 07:25:04;;;;;;;47.47;20.60;;;-7.20;99.90;;;;;;4970522;28;20671;-57
2022/12/13 07:27:36;;;;;;;45.70;19.43;;;-7.20;99.90;;;;;;4994778;28;20215;-57
2022/12/13 07:30:05;;;;;;;56.80;23.20;;;-7.20;99.90;;;;;;4973875;28;20202;-58
2022/12/13 07:32:34;;;;;;;57.57;22.43;;;-7.20;99.90;;;;;;4955542;28;20727;-58
2022/12/13 07:35:02;;;;;;;61.33;24.33;;;-7.20;99.90;;;;;;4972246;28;20650;-58
2022/12/13 07:37:31;;;;;;;46.70;20.23;;;-7.10;99.90;;;;;;4969873;28;20212;-58
2022/12/13 07:40:00;;;;;;;54.20;21.50;;;-7.10;99.90;;;;;;4967963;28;20202;-58
2022/12/13 07:42:32;;;;;;;46.70;20.03;;;-7.10;99.90;;;;;;4983436;28;20264;-58
2022/12/13 07:45:01;;;;;;;52.83;21.43;;;-7.10;99.90;;;;;;4962410;28;20208;-58
2022/12/13 07:47:33;;;;;;;49.37;21.27;;;-7.00;99.90;;;;;;4966454;28;20290;-57
2022/12/13 07:50:05;;;;;;;44.43;19.40;;;-7.00;99.90;;;;;;4999945;28;20195;-58
2022/12/13 07:52:51;;;;;;;56.30;21.10;;;-6.90;99.90;;;;;;4958399;28;20211;-56
2022/12/13 07:55:20;;;;;;;57.47;21.70;;;-6.90;99.90;;;;;;4960917;28;20218;-58
2022/12/13 07:58:07;;;;;;;63.03;24.23;;;-6.80;99.90;;;;;;4966531;28;20221;-57
2022/12/13 08:00:37;;;;;;;62.60;24.13;;;-6.80;99.90;;;;;;4952106;28;20226;-58
2022/12/13 08:03:13;;;;;;;67.40;25.30;;;-6.70;99.90;;;;;;4987518;28;20206;-57
2022/12/13 08:05:59;;;;;;;61.40;23.27;;;-6.70;99.90;;;;;;4974241;28;20192;-57
2022/12/13 08:08:31;;;;;;;68.83;24.60;;;-6.60;99.90;;;;;;4957235;28;20288;-57
2022/12/13 08:11:04;;;;;;;79.60;28.57;;;-6.60;99.90;;;;;;4963650;28;20810;-58
2022/12/13 08:13:33;;;;;;;77.00;29.17;;;-6.50;99.90;;;;;;4967133;28;20209;-58
2022/12/13 08:16:07;;;;;;;71.60;28.87;;;-6.40;99.90;;;;;;4969841;28;20639;-58
2022/12/13 08:18:56;;;;;;;61.87;26.83;;;-6.30;99.90;;;;;;4967755;28;20192;-58
2022/12/13 08:21:35;;;;;;;61.57;27.07;;;-6.20;99.90;;;;;;4961212;28;20199;-58
2022/12/13 08:24:24;;;;;;;59.83;25.37;;;-6.10;99.90;;;;;;4965554;28;20327;-58
2022/12/13 08:26:53;;;;;;;52.60;23.67;;;-6.00;99.90;;;;;;4960452;28;20228;-58
2022/12/13 08:29:21;;;;;;;55.93;23.37;;;-5.90;99.90;;;;;;4962891;28;20207;-57
2022/12/13 08:32:07;;;;;;;53.40;22.80;;;-5.80;99.90;;;;;;4966316;28;20195;-58
2022/12/13 08:34:35;;;;;;;53.10;21.20;;;-5.80;99.90;;;;;;4955942;28;20206;-57
2022/12/13 08:37:04;;;;;;;46.33;20.80;;;-5.70;99.90;;;;;;4963734;28;20560;-57
2022/12/13 08:39:34;;;;;;;51.63;21.50;;;-5.60;99.90;;;;;;4973944;28;20224;-58
2022/12/13 08:42:04;;;;;;;44.23;20.37;;;-5.60;99.90;;;;;;4978044;28;20608;-58
2022/12/13 08:44:46;;;;;;;44.53;20.20;;;-5.50;99.90;;;;;;4966330;28;20727;-58
2022/12/13 08:47:16;;;;;;;42.63;19.07;;;-5.50;99.90;;;;;;4960350;28;20286;-57
2022/12/13 08:49:54;;;;;;;43.43;19.80;;;-5.50;99.90;;;;;;4963545;28;20209;-57
2022/12/13 08:52:30;;;;;;;50.60;19.23;;;-5.40;99.90;;;;;;4968051;28;20795;-56
2022/12/13 08:54:58;;;;;;;47.07;19.50;;;-5.40;99.90;;;;;;4962799;28;20207;-57
2022/12/13 08:57:27;;;;;;;45.20;19.63;;;-5.30;99.90;;;;;;4960491;28;20249;-58
2022/12/13 08:59:55;;;;;;;43.63;19.67;;;-5.20;99.90;;;;;;4965542;28;20206;-58
2022/12/13 09:02:25;;;;;;;48.90;20.20;;;-5.00;99.90;;;;;;4971738;28;20286;-58
2022/12/13 09:04:54;;;;;;;45.17;20.43;;;-4.80;99.90;;;;;;4962511;28;20196;-58
2022/12/13 09:07:22;;;;;;;52.60;21.50;;;-4.60;99.90;;;;;;4969089;28;20227;-58
2022/12/13 09:09:50;;;;;;;51.60;22.20;;;-4.50;99.90;;;;;;4964866;28;20199;-58
2022/12/13 09:12:22;;;;;;;48.57;21.27;;;-4.30;99.90;;;;;;4967935;28;20203;-57
2022/12/13 09:14:58;;;;;;;46.67;21.07;;;-4.20;99.90;;;;;;4979334;28;20218;-58
2022/12/13 09:17:32;;;;;;;58.67;22.33;;;-4.00;99.90;;;;;;4966248;28;20712;-58
2022/12/13 09:20:08;;;;;;;46.63;21.97;;;-3.80;99.90;;;;;;4963394;28;20226;-58
2022/12/13 09:22:55;;;;;;;46.50;21.87;;;-3.60;99.90;;;;;;4965082;28;20290;-58
2022/12/13 09:25:31;;;;;;;50.93;21.37;;;-3.40;99.90;;;;;;4964430;28;20661;-58
2022/12/13 09:28:07;;;;;;;43.93;20.73;;;-3.20;99.90;;;;;;4961187;28;20773;-58
2022/12/13 09:30:35;;;;;;;46.37;20.23;;;-3.10;99.90;;;;;;4971352;28;20709;-58
2022/12/13 09:33:06;;;;;;;42.07;19.43;;;-2.90;99.90;;;;;;4975006;28;20192;-58
2022/12/13 09:35:54;;;;;;;38.87;19.07;;;-2.80;99.90;;;;;;4957365;28;20555;-58
2022/12/13 09:38:22;;;;;;;48.90;21.07;;;-2.60;99.90;;;;;;4999614;28;20225;-58
2022/12/13 09:40:53;;;;;;;39.00;19.63;;;-2.50;99.90;;;;;;4962698;28;20207;-58
2022/12/13 09:43:30;;;;;;;36.10;18.20;;;-2.30;99.90;;;;;;4964280;28;20203;-58
2022/12/13 09:46:21;;;;;;;39.17;18.97;;;-2.30;99.90;;;;;;4970185;28;20649;-58
2022/12/13 09:48:53;;;;;;;40.97;18.93;;;-2.20;99.90;;;;;;4964480;28;20220;-58
2022/12/13 09:51:32;;;;;;;42.33;18.77;;;-2.00;99.90;;;;;;4978990;28;20199;-58
2022/12/13 09:54:17;;;;;;;38.50;19.00;;;-1.80;99.90;;;;;;4978601;28;20280;-57
2022/12/13 09:56:49;;;;;;;36.20;16.83;;;-1.40;99.90;;;;;;4967260;28;20194;-58
2022/12/13 09:59:21;;;;;;;36.20;18.00;;;-1.10;99.90;;;;;;4957252;28;20241;-59
2022/12/13 10:01:49;;;;;;;37.33;16.97;;;-0.70;99.90;;;;;;4973291;28;20199;-59
2022/12/13 10:04:20;;;;;;;28.23;15.37;;;-0.30;99.90;;;;;;4976266;28;20210;-59
2022/12/13 10:06:52;;;;;;;32.63;16.90;;;-0.10;99.90;;;;;;4962375;28;20206;-59
2022/12/13 10:09:22;;;;;;;32.43;15.50;;;0.10;99.90;;;;;;4958733;28;20589;-58
2022/12/13 10:11:52;;;;;;;29.37;15.43;;;0.30;99.90;;;;;;4964200;28;20203;-59
2022/12/13 10:14:26;;;;;;;33.83;15.77;;;0.30;99.90;;;;;;4956379;28;20206;-58
2022/12/13 10:16:57;;;;;;;27.53;16.07;;;0.40;99.90;;;;;;4962810;28;20272;-58
2022/12/13 10:19:34;;;;;;;27.13;14.40;;;0.60;99.90;;;;;;4962049;28;20253;-58
2022/12/13 10:22:04;;;;;;;27.87;15.67;;;0.40;99.90;;;;;;4963484;28;20289;-58
2022/12/13 10:24:50;;;;;;;29.90;14.77;;;0.40;99.90;;;;;;4970087;28;20206;-59
2022/12/13 10:27:24;;;;;;;30.60;15.53;;;0.30;99.90;;;;;;4963803;28;20264;-58
2022/12/13 10:30:09;;;;;;;31.73;16.20;;;0.40;99.90;;;;;;4954491;28;20203;-59
2022/12/13 10:32:47;;;;;;;28.23;15.40;;;0.60;99.90;;;;;;4956787;28;20210;-58
2022/12/13 10:35:24;;;;;;;27.87;14.33;;;0.60;99.90;;;;;;4956194;28;20226;-58
2022/12/13 10:37:53;;;;;;;30.70;14.80;;;0.70;99.90;;;;;;4959310;28;20207;-58
2022/12/13 10:40:27;;;;;;;31.07;16.13;;;0.60;99.90;;;;;;4961585;28;20245;-58
2022/12/13 10:43:08;;;;;;;27.70;14.37;;;0.50;99.90;;;;;;4953073;28;20228;-58
2022/12/13 10:45:39;;;;;;;31.70;15.27;;;0.70;99.90;;;;;;4968796;28;20234;-62
2022/12/13 10:48:19;;;;;;;24.87;14.37;;;0.50;99.90;;;;;;4964165;28;20234;-58
2022/12/13 10:51:02;;;;;;;28.10;15.47;;;0.70;99.90;;;;;;4962561;28;20207;-57
2022/12/13 10:53:33;;;;;;;33.70;16.47;;;0.90;99.90;;;;;;4965063;28;20195;-59
2022/12/13 10:56:02;;;;;;;28.53;15.10;;;1.10;99.90;;;;;;4967830;28;20231;-58
2022/12/13 10:58:36;;;;;;;31.83;15.13;;;1.20;99.90;;;;;;4965770;28;20203;-58
2022/12/13 11:01:20;;;;;;;29.43;14.77;;;1.30;99.90;;;;;;4973832;28;20191;-59
2022/12/13 11:04:00;;;;;;;27.60;14.50;;;1.20;99.90;;;;;;4968186;28;20791;-59
2022/12/13 11:06:41;;;;;;;32.90;16.23;;;1.30;99.90;;;;;;4966230;28;20263;-58
2022/12/13 11:09:15;;;;;;;28.60;14.93;;;1.30;99.90;;;;;;4976852;28;20276;-59
2022/12/13 11:11:52;;;;;;;26.50;14.57;;;1.30;99.90;;;;;;4966223;28;20204;-58
2022/12/13 11:14:29;;;;;;;27.27;15.03;;;1.30;99.90;;;;;;4965062;28;20650;-58
2022/12/13 11:17:08;;;;;;;29.63;15.87;;;1.30;99.90;;;;;;4969008;28;20709;-59
2022/12/13 11:19:40;;;;;;;26.00;14.53;;;1.30;99.90;;;;;;4968245;28;20206;-58
2022/12/13 11:22:18;;;;;;;27.77;14.63;;;1.30;99.90;;;;;;4967192;28;20202;-58
2022/12/13 11:24:51;;;;;;;32.30;15.67;;;1.30;99.90;;;;;;4963436;28;20206;-59
2022/12/13 11:27:47;;;;;;;29.13;14.60;;;1.40;99.90;;;;;;4967665;28;20200;-59
2022/12/13 11:30:21;;;;;;;27.97;15.20;;;1.60;99.90;;;;;;4960418;28;20196;-58
2022/12/13 11:33:12;;;;;;;29.57;15.93;;;1.50;99.90;;;;;;4966074;28;20195;-58
2022/12/13 11:35:54;;;;;;;27.03;15.20;;;1.30;99.90;;;;;;4969225;28;20826;-58
2022/12/13 11:38:32;;;;;;;29.77;16.30;;;1.30;99.90;;;;;;4997683;28;20199;-58
2022/12/13 11:41:10;;;;;;;28.90;15.87;;;1.10;99.90;;;;;;4962985;28;20210;-58
2022/12/13 11:43:43;;;;;;;32.00;15.97;;;1.00;99.90;;;;;;4973181;28;20192;-58
2022/12/13 11:46:17;;;;;;;30.00;16.30;;;0.90;99.90;;;;;;4963271;28;20207;-59
2022/12/13 11:48:51;;;;;;;29.27;15.93;;;0.90;99.90;;;;;;4996144;28;20203;-58
2022/12/13 11:51:26;;;;;;;30.90;16.93;;;0.90;99.90;;;;;;4966976;28;20196;-58
2022/12/13 11:54:01;;;;;;;33.23;16.93;;;1.00;99.90;;;;;;4982563;28;20195;-58
2022/12/13 11:56:34;;;;;;;31.87;16.90;;;1.00;99.90;;;;;;5004869;28;20195;-58
2022/12/13 11:59:21;;;;;;;31.53;16.37;;;1.00;99.90;;;;;;4966401;28;20803;-58
2022/12/13 12:02:01;;;;;;;35.10;17.07;;;1.00;99.90;;;;;;4961658;28;20679;-58
2022/12/13 12:04:38;;;;;;;33.00;16.20;;;1.10;99.90;;;;;;4974102;28;20232;-58
2022/12/13 12:07:12;;;;;;;30.17;16.73;;;1.10;99.90;;;;;;4966691;28;20222;-58
2022/12/13 12:10:19;;;;;;;30.97;16.47;;;1.20;99.90;;;;;;4957530;28;20268;-58
2022/12/13 12:12:55;;;;;;;33.50;17.53;;;1.10;99.90;;;;;;4965220;28;20200;-58
2022/12/13 12:15:28;;;;;;;32.80;17.17;;;1.00;99.90;;;;;;4967914;28;20283;-58
2022/12/13 12:17:57;;;;;;;36.70;18.57;;;1.00;99.90;;;;;;4964881;28;20235;-58
2022/12/13 12:20:43;;;;;;;35.63;18.37;;;1.00;99.90;;;;;;4978902;28;20204;-58
2022/12/13 12:23:20;;;;;;;31.43;16.73;;;1.10;99.90;;;;;;4961517;28;20200;-58
2022/12/13 12:25:56;;;;;;;27.57;15.70;;;1.10;99.90;;;;;;4988760;28;20235;-58
2022/12/13 12:28:35;;;;;;;32.00;16.83;;;1.10;99.90;;;;;;4966506;28;20191;-58
2022/12/13 12:31:16;;;;;;;28.37;15.67;;;1.10;99.90;;;;;;4963924;28;20191;-58
2022/12/13 12:33:57;;;;;;;36.83;16.77;;;1.10;99.90;;;;;;4965515;28;20219;-58
2022/12/13 12:36:46;;;;;;;31.40;16.93;;;1.10;99.90;;;;;;4958501;28;20207;-58
2022/12/13 12:39:33;;;;;;;29.57;16.53;;;1.00;99.90;;;;;;4959657;28;20192;-58
2022/12/13 12:42:26;;;;;;;30.90;16.53;;;1.00;99.90;;;;;;4959514;28;20710;-58
2022/12/13 12:45:14;;;;;;;28.53;16.57;;;1.10;99.90;;;;;;4960635;28;20673;-58
2022/12/13 12:48:17;;;;;;;29.80;16.00;;;1.10;99.90;;;;;;4961214;28;20201;-58
2022/12/13 12:51:09;;;;;;;37.20;18.00;;;1.10;99.90;;;;;;4957265;28;20605;-59
2022/12/13 12:53:44;;;;;;;32.13;17.70;;;1.10;99.90;;;;;;4965125;28;20226;-58
2022/12/13 12:56:27;;;;;;;36.27;18.03;;;1.10;99.90;;;;;;4963529;28;20701;-58
2022/12/13 12:59:07;;;;;;;38.00;18.57;;;1.00;99.90;;;;;;4961596;28;20195;-58
2022/12/13 13:01:49;;;;;;;35.23;17.50;;;0.90;99.90;;;;;;4959277;28;20206;-58
2022/12/13 13:04:22;;;;;;;36.57;17.33;;;0.90;99.90;;;;;;4964551;28;20330;-58
2022/12/13 13:06:57;;;;;;;31.40;16.37;;;0.90;99.90;;;;;;4966316;28;22063;-58
2022/12/13 13:09:30;;;;;;;34.63;16.83;;;0.90;99.90;;;;;;4981987;28;20580;-58